-> Other stations

1455

Speed(max): 3.8(4.9)knots
Direction:63° ( ENE)
Temperature: 22.8°C
Arrived: 2022-10-03 15:41:26 CEST

Past data:
hh:mmknots
Dir (°)
°C
15:39 3.8 5.4 ENE(71) 22.7
15:37 3.8 4.9 ENE(75) 22.6
15:35 3.8 5.4 ENE(64) 22.5
15:33 3.8 4.9 NE(51) 22.5
15:31 4.3 5.4 NE(42) 22.3
15:29 4.3 5.4 NE(41) 22.3
15:27 4.3 4.9 NE(37) 22.2
15:25 3.8 4.9 NE(39) 22.3
15:23 4.3 4.9 NE(41) 22.3
15:21 4.9 5.4 NE(40) 22.2
15:19 4.3 5.4 NE(41) 22.2
15:17 4.9 5.4 NE(41) 22.2
15:15 4.9 5.9 NE(34) 22.1
15:13 4.9 7 NNE(32) 22.1
15 min. averages:
hh:mmknots
Dir (°)
°C
15:30 4.3 5.9 NE(39) 22.2
15:15 4.9 7 NNE(33) 22.2
15:00 3.8 5.9 NE(37) 22.2
14:45 3.8 5.4 NE(38) 22.1
14:30 4.9 5.9 NE(44) 21.9
14:15 4.9 7 NE(39) 21.9
14:00 5.9 8.6 NNE(29) 21.8
13:45 6.5 8.1 NNE(21) 21.7
13:30 7.6 10.3 NNE(23) 21.6
13:15 7.6 10.3 NNE(25) 21.5
13:00 8.1 10.3 NNE(26) 21.3
12:45 8.6 10.8 NNE(25) 21.1
12:30 9.2 11.9 NNE(23) 21.1
12:15 10.3 13.5 NNE(19) 20.9
12:00 10.8 13.5 NNE(22) 21.1
Stations at HR:
1455
-> Other regions

Desktop view
Data provided by Holfuy.
© Holfuy Weather 2022